Time;durP1;ratioP1;P1;durP2;ratioP2;P2;SDS_P1;SDS_P2;PMS_P1;PMS_P2;Temp;Humidity;BMP_temperature;BMP_pressure;BME280_temperature;BME280_humidity;BME280_pressure;Samples;Min_cycle;Max_cycle;Signal;HPM_P1;HPM_P2
2022/06/10 00:01:02;;;;;;;11.75;1.50;;;;;;;46.20;9.44;100420.25;5084943;28;20078;-62
2022/06/10 00:03:29;;;;;;;13.02;1.67;;;;;;;45.95;9.67;100415.47;5089044;28;20047;-62
2022/06/10 00:06:04;;;;;;;28.30;2.15;;;;;;;46.63;9.22;100423.69;5082170;28;20103;-63
2022/06/10 00:08:36;;;;;;;10.00;1.70;;;;;;;44.67;10.66;100424.13;5104473;28;20500;-61
2022/06/10 00:11:05;;;;;;;9.45;1.63;;;;;;;43.93;11.13;100419.75;5089293;28;20348;-62
2022/06/10 00:13:36;;;;;;;7.40;1.65;;;;;;;42.42;12.69;100425.28;5083131;28;20410;-63
2022/06/10 00:16:03;;;;;;;5.50;1.60;;;;;;;43.05;12.12;100420.09;5088902;28;20070;-61
2022/06/10 00:18:32;;;;;;;11.40;1.58;;;;;;;44.52;11.03;100419.31;5083633;28;20060;-61
2022/06/10 00:21:01;;;;;;;7.30;1.48;;;;;;;45.01;10.75;100420.22;5081757;28;20028;-61
2022/06/10 00:23:28;;;;;;;12.02;1.80;;;;;;;45.26;10.71;100420.69;5097942;28;20027;-62
2022/06/10 00:25:55;;;;;;;11.57;1.70;;;;;;;45.82;10.28;100415.19;5095371;28;20032;-62
2022/06/10 00:28:22;;;;;;;9.68;1.80;;;;;;;45.73;10.13;100416.97;5082225;28;20042;-62
2022/06/10 00:30:49;;;;;;;6.97;1.50;;;;;;;44.13;11.31;100409.56;5105772;28;20042;-62
2022/06/10 00:33:16;;;;;;;9.80;1.45;;;;;;;44.16;11.36;100420.78;5096257;28;20096;-63
2022/06/10 00:35:44;;;;;;;8.77;1.60;;;;;;;44.46;10.92;100420.53;5103859;28;20060;-61
2022/06/10 00:38:11;;;;;;;6.75;1.33;;;;;;;44.99;10.46;100405.63;5103022;28;20080;-61
2022/06/10 00:40:46;;;;;;;9.75;1.30;;;;;;;44.97;10.47;100413.16;5096954;28;20455;-59
2022/06/10 00:43:16;;;;;;;9.80;1.50;;;;;;;44.67;10.76;100412.66;5109032;28;20056;-60
2022/06/10 00:45:54;;;;;;;4.95;1.50;;;;;;;44.77;10.84;100405.44;5099916;28;20034;-59
2022/06/10 00:48:32;;;;;;;7.90;1.40;;;;;;;44.63;10.85;100412.91;5104951;28;20028;-64
2022/06/10 00:51:04;;;;;;;7.30;1.25;;;;;;;44.39;11.14;100412.41;5090478;28;20033;-63
2022/06/10 00:53:35;;;;;;;9.32;1.60;;;;;;;43.99;11.62;100408.34;5084556;28;20093;-61
2022/06/10 00:56:09;;;;;;;12.32;1.85;;;;;;;44.11;11.63;100406.41;5090278;28;20528;-61
2022/06/10 00:58:45;;;;;;;8.07;1.40;;;;;;;44.07;11.29;100411.56;5091501;28;20032;-60
2022/06/10 01:01:13;;;;;;;14.52;1.70;;;;;;;43.53;11.43;100408.31;5074680;28;20032;-61
2022/06/10 01:03:41;;;;;;;7.28;1.40;;;;;;;43.03;12.07;100414.88;5091959;28;20028;-61
2022/06/10 01:06:09;;;;;;;5.88;1.33;;;;;;;42.40;12.32;100407.84;5091928;28;20121;-62
2022/06/10 01:08:37;;;;;;;5.95;1.35;;;;;;;42.68;12.59;100414.84;5090306;28;20024;-63
2022/06/10 01:11:19;;;;;;;5.53;1.77;;;;;;;42.33;12.99;100417.59;5092447;28;20031;-63
2022/06/10 01:14:14;;;;;;;7.30;1.38;;;;;;;41.11;14.25;100421.50;5090282;28;20032;-61
2022/06/10 01:17:28;;;;;;;7.30;1.77;;;;;;;41.51;13.82;100413.38;5092243;28;20039;-61
2022/06/10 01:20:12;;;;;;;11.52;1.85;;;;;;;41.24;14.51;100424.94;5090226;28;20058;-61
2022/06/10 01:22:57;;;;;;;10.23;1.40;;;;;;;41.00;14.46;100422.84;5091823;28;20111;-61
2022/06/10 01:25:57;;;;;;;5.13;1.30;;;;;;;41.19;14.58;100425.59;5092371;28;20032;-61
2022/06/10 01:29:03;;;;;;;14.15;1.77;;;;;;;41.09;14.63;100421.97;5090257;28;20032;-61
2022/06/10 01:31:34;;;;;;;11.20;1.77;;;;;;;41.38;14.88;100424.22;5088938;28;20036;-61
2022/06/10 01:34:18;;;;;;;8.20;1.80;;;;;;;41.54;14.87;100425.88;5092324;28;20032;-62
2022/06/10 01:37:18;;;;;;;15.07;2.40;;;;;;;41.13;15.20;100427.53;5089733;28;20036;-62
2022/06/10 01:39:50;;;;;;;15.18;2.28;;;;;;;41.10;15.36;100420.72;5089656;28;20039;-61
2022/06/10 01:42:30;;;;;;;12.65;2.17;;;;;;;40.94;15.14;100424.78;5092119;28;20036;-63
2022/06/10 01:45:10;;;;;;;14.65;2.15;;;;;;;40.28;15.69;100433.16;5093597;28;20031;-63
2022/06/10 01:48:05;;;;;;;13.50;1.95;;;;;;;40.10;16.02;100419.72;5092289;28;20043;-63
2022/06/10 01:50:50;;;;;;;11.85;2.17;;;;;;;40.00;16.45;100434.44;5094245;28;20032;-63
2022/06/10 01:53:38;;;;;;;21.30;2.17;;;;;;;39.72;16.83;100436.47;5095811;28;20063;-60
2022/06/10 01:56:32;;;;;;;12.35;1.83;;;;;;;39.53;16.84;100427.91;5093420;28;20482;-63
2022/06/10 01:59:22;;;;;;;10.87;1.60;;;;;;;39.38;17.00;100434.66;5086472;28;20032;-63
2022/06/10 02:01:57;;;;;;;11.35;1.73;;;;;;;39.19;16.69;100437.44;5093762;28;20032;-62
2022/06/10 02:04:30;;;;;;;19.98;1.83;;;;;;;38.96;16.38;100430.25;5093157;28;20028;-61
2022/06/10 02:07:26;;;;;;;15.55;1.65;;;;;;;38.62;16.34;100431.16;5096700;28;20028;-61
2022/06/10 02:10:03;;;;;;;9.82;1.58;;;;;;;38.33;16.69;100428.63;5093612;28;20043;-62
2022/06/10 02:12:32;;;;;;;6.65;1.60;;;;;;;38.17;17.24;100431.63;5093508;28;20032;-60
2022/06/10 02:15:04;;;;;;;17.65;1.77;;;;;;;37.97;17.65;100434.78;5096803;28;20028;-60
2022/06/10 02:17:42;;;;;;;7.13;1.55;;;;;;;37.68;17.14;100434.97;5095813;28;20420;-61
2022/06/10 02:20:14;;;;;;;10.63;1.83;;;;;;;37.42;17.50;100437.09;5093741;28;20032;-62
2022/06/10 02:22:45;;;;;;;13.68;2.03;;;;;;;37.24;16.88;100439.69;5095377;28;20038;-61
2022/06/10 02:25:14;;;;;;;12.02;1.83;;;;;;;36.99;16.76;100445.38;5096564;28;20118;-61
2022/06/10 02:27:50;;;;;;;12.32;1.58;;;;;;;36.74;17.35;100446.91;5095318;28;20024;-60
2022/06/10 02:30:26;;;;;;;14.68;1.85;;;;;;;36.50;17.16;100449.25;5095611;28;20039;-60
2022/06/10 02:32:55;;;;;;;18.10;2.13;;;;;;;36.25;17.03;100444.28;5094275;28;20039;-61
2022/06/10 02:35:27;;;;;;;44.78;3.25;;;;;;;36.06;16.50;100452.91;5094745;28;20073;-60
2022/06/10 02:38:25;;;;;;;11.70;1.77;;;;;;;35.79;16.43;100456.06;5094585;28;20024;-61
2022/06/10 02:40:54;;;;;;;15.52;2.08;;;;;;;35.53;16.70;100449.44;5093918;28;20103;-59
2022/06/10 02:43:27;;;;;;;15.98;2.30;;;;;;;35.31;16.80;100461.28;5095079;28;20418;-61
2022/06/10 02:46:18;;;;;;;16.30;2.05;;;;;;;35.09;17.12;100455.34;5094925;28;20124;-60
2022/06/10 02:48:52;;;;;;;27.50;2.72;;;;;;;34.90;17.29;100452.56;5093650;28;20040;-60
2022/06/10 02:51:20;;;;;;;14.85;2.00;;;;;;;34.76;17.50;100457.28;5094168;28;20111;-60
2022/06/10 02:53:47;;;;;;;15.70;2.13;;;;;;;34.66;18.01;100454.69;5094418;28;20120;-60
2022/06/10 02:56:17;;;;;;;15.50;2.13;;;;;;;34.57;18.07;100463.75;5094428;28;20486;-59
2022/06/10 03:02:00;;;;;;;14.15;2.45;;;;;;;34.21;19.00;100474.94;5092998;28;20401;-59
2022/06/10 03:05:08;;;;;;;13.70;1.70;;;;;;;33.99;19.13;100468.13;5092568;28;20547;-63
2022/06/10 03:07:37;;;;;;;13.30;2.45;;;;;;;33.93;19.44;100477.06;5090964;28;20035;-60
2022/06/10 03:10:12;;;;;;;12.07;2.10;;;;;;;33.86;19.70;100479.22;5092732;28;20051;-63
2022/06/10 03:13:13;;;;;;;17.02;2.20;;;;;;;33.70;19.70;100479.06;5091363;28;20032;-63
2022/06/10 03:16:16;;;;;;;15.90;2.30;;;;;;;33.69;19.99;100483.09;5091467;28;20032;-62
2022/06/10 03:18:45;;;;;;;17.55;2.40;;;;;;;33.56;20.35;100485.72;5088001;28;20498;-63
2022/06/10 03:22:03;;;;;;;15.77;2.30;;;;;;;33.43;20.25;100481.94;5092620;28;20051;-62
2022/06/10 03:24:39;;;;;;;11.82;2.28;;;;;;;33.49;20.38;100474.59;4990979;28;20077;-61
2022/06/10 03:27:14;;;;;;;12.65;2.10;;;;;;;33.36;20.04;100488.47;4990758;28;20050;-61
2022/06/10 03:29:47;;;;;;;20.20;2.28;;;;;;;33.31;20.24;100489.72;5061440;28;20047;-61
2022/06/10 03:32:17;;;;;;;20.70;2.63;;;;;;;33.23;20.44;100488.25;5092406;28;20043;-61
2022/06/10 03:34:50;;;;;;;12.55;2.40;;;;;;;33.26;20.72;100486.59;5092635;28;20050;-62
2022/06/10 03:37:18;;;;;;;21.25;2.72;;;;;;;33.02;21.08;100482.91;5074033;28;20432;-60
2022/06/10 03:39:57;;;;;;;15.73;2.97;;;;;;;32.92;21.21;100492.31;5092593;28;20108;-61
2022/06/10 03:42:26;;;;;;;17.15;2.75;;;;;;;32.92;21.14;100495.13;5092120;28;20423;-61
2022/06/10 03:44:56;;;;;;;25.77;3.53;;;;;;;32.84;21.87;100494.41;5092292;28;20028;-63
2022/06/10 03:47:31;;;;;;;85.25;5.65;;;;;;;32.80;23.49;100496.50;5093912;28;20019;-62
2022/06/10 03:50:12;;;;;;;21.85;3.17;;;;;;;32.84;24.07;100502.06;5100239;28;20032;-63
2022/06/10 03:52:40;;;;;;;20.40;3.15;;;;;;;32.69;23.46;100496.63;5103679;28;20510;-62
2022/06/10 03:55:09;;;;;;;23.60;3.30;;;;;;;32.67;22.90;100501.84;5100930;28;20354;-63
2022/06/10 03:57:36;;;;;;;21.65;3.08;;;;;;;32.51;23.47;100506.50;5094315;28;20383;-63
2022/06/10 04:00:05;;;;;;;20.15;3.15;;;;;;;32.61;22.80;100514.78;5093155;28;20024;-63
2022/06/10 04:02:39;;;;;;;32.35;3.90;;;;;;;32.51;24.00;100524.19;5092925;28;20048;-62
2022/06/10 04:05:08;;;;;;;22.83;3.90;;;;;;;32.46;23.65;100535.88;5093003;28;20541;-61
2022/06/10 04:07:35;;;;;;;20.65;3.47;;;;;;;32.35;24.07;100524.75;5092122;28;20024;-63
2022/06/10 04:10:03;;;;;;;36.08;4.57;;;;;;;32.47;24.17;100529.03;5092385;28;20070;-61
2022/06/10 04:12:30;;;;;;;34.10;4.07;;;;;;;32.41;24.72;100536.34;5088769;28;20044;-63
2022/06/10 04:14:57;;;;;;;24.48;3.50;;;;;;;32.32;24.14;100536.06;5094153;28;20059;-60
2022/06/10 04:17:23;;;;;;;33.58;3.42;;;;;;;32.26;24.33;100543.28;5097063;28;20023;-61
2022/06/10 04:19:50;;;;;;;19.33;3.28;;;;;;;32.40;23.81;100540.38;5111566;28;20036;-61
2022/06/10 04:22:17;;;;;;;24.55;3.40;;;;;;;32.34;24.19;100554.09;5093911;28;20027;-63
2022/06/10 04:24:44;;;;;;;23.00;3.15;;;;;;;32.27;24.04;100559.78;5111715;28;20525;-62
2022/06/10 04:27:11;;;;;;;23.42;2.92;;;;;;;32.26;23.95;100558.16;5107594;28;20023;-62
2022/06/10 04:29:37;;;;;;;25.80;3.00;;;;;;;32.28;23.66;100555.75;5111645;28;20047;-62
2022/06/10 04:32:05;;;;;;;20.23;3.20;;;;;;;32.28;23.96;100563.38;5098124;28;20024;-62
2022/06/10 04:34:31;;;;;;;24.02;3.40;;;;;;;32.28;23.87;100554.94;5088635;28;20064;-62
2022/06/10 04:36:58;;;;;;;27.70;3.35;;;;;;;32.13;24.52;100565.50;5075014;28;20024;-62
2022/06/10 04:39:25;;;;;;;20.10;3.40;;;;;;;32.10;24.15;100567.13;5089595;28;20040;-62
2022/06/10 04:41:52;;;;;;;20.92;3.25;;;;;;;32.03;24.30;100569.22;5093003;28;20028;-63
2022/06/10 04:44:18;;;;;;;19.98;3.22;;;;;;;32.05;24.33;100578.84;5092041;28;20059;-62
2022/06/10 04:46:46;;;;;;;17.52;2.72;;;;;;;32.19;23.60;100579.94;5091303;28;20128;-63
2022/06/10 04:49:13;;;;;;;18.45;2.53;;;;;;;32.13;23.48;100593.63;5083584;28;20063;-62
2022/06/10 04:51:40;;;;;;;18.70;3.00;;;;;;;32.19;23.37;100591.19;5086346;28;20071;-62
2022/06/10 04:54:07;;;;;;;21.80;3.38;;;;;;;32.11;23.02;100585.59;5084760;28;20482;-63
2022/06/10 04:56:35;;;;;;;16.27;3.58;;;;;;;32.37;22.69;100591.84;5066403;28;20063;-61
2022/06/10 04:59:02;;;;;;;13.77;2.80;;;;;;;32.36;22.09;100595.88;5090927;28;20090;-61
2022/06/10 05:01:28;;;;;;;19.05;3.78;;;;;;;32.29;22.48;100593.13;5086876;28;20120;-61
2022/06/10 05:03:55;;;;;;;16.55;3.13;;;;;;;32.35;22.12;100589.44;5084408;28;20032;-62
2022/06/10 05:06:22;;;;;;;15.43;2.40;;;;;;;32.35;21.87;100589.44;5087940;28;20044;-61
2022/06/10 05:08:49;;;;;;;15.70;2.80;;;;;;;32.36;22.11;100590.25;5086405;28;20079;-62
2022/06/10 05:11:16;;;;;;;9.27;2.13;;;;;;;32.47;21.38;100591.72;5086639;28;20028;-61
2022/06/10 05:13:43;;;;;;;7.38;2.05;;;;;;;32.45;21.51;100598.97;5091049;28;20040;-62
2022/06/10 05:16:12;;;;;;;15.25;2.47;;;;;;;32.27;21.68;100592.72;5088086;28;20016;-63
2022/06/10 05:18:39;;;;;;;20.35;6.00;;;;;;;32.16;21.85;100599.25;5073289;28;20051;-61
2022/06/10 05:21:06;;;;;;;23.92;11.63;;;;;;;31.99;22.02;100597.38;5092125;28;20051;-61
2022/06/10 05:23:33;;;;;;;25.48;16.38;;;;;;;31.98;22.34;100595.78;5076760;28;20032;-62
2022/06/10 05:25:59;;;;;;;19.27;12.77;;;;;;;31.91;22.13;100587.38;5101328;28;20031;-61
2022/06/10 05:28:27;;;;;;;20.45;11.27;;;;;;;32.03;22.46;100598.16;5099232;28;20032;-62
2022/06/10 05:30:54;;;;;;;19.63;11.23;;;;;;;32.05;22.10;100594.91;5101753;28;20389;-64
2022/06/10 05:33:21;;;;;;;22.17;11.23;;;;;;;31.97;22.55;100602.63;5098751;28;20119;-63
2022/06/10 05:35:48;;;;;;;16.13;11.27;;;;;;;31.91;22.50;100595.81;5098882;28;20035;-60
2022/06/10 05:38:15;;;;;;;23.08;11.10;;;;;;;31.84;22.32;100596.69;5075657;28;20044;-62
2022/06/10 05:40:41;;;;;;;17.20;10.65;;;;;;;31.77;22.55;100604.34;5099564;28;20888;-61
2022/06/10 05:43:09;;;;;;;23.15;10.38;;;;;;;31.69;22.53;100602.78;5094103;28;20032;-62
2022/06/10 05:45:35;;;;;;;15.50;9.02;;;;;;;31.73;22.29;100597.97;5098590;28;20436;-61
2022/06/10 05:48:03;;;;;;;12.55;8.18;;;;;;;31.65;22.17;100602.03;5098443;28;20035;-61
2022/06/10 05:50:35;;;;;;;14.38;7.10;;;;;;;31.60;22.37;100602.44;5109124;28;20030;-62
2022/06/10 05:53:04;;;;;;;14.13;7.22;;;;;;;31.54;22.10;100602.88;5088313;28;20044;-60
2022/06/10 05:55:32;;;;;;;15.77;5.88;;;;;;;31.44;21.80;100609.38;5088330;28;20044;-61
2022/06/10 05:57:59;;;;;;;10.52;5.03;;;;;;;31.26;22.10;100603.84;5094329;28;20024;-60
2022/06/10 06:00:30;;;;;;;11.32;4.53;;;;;;;31.26;21.86;100597.44;5089976;28;20037;-62
2022/06/10 06:02:59;;;;;;;9.23;4.03;;;;;;;31.18;21.62;100590.25;5101139;28;20354;-61
2022/06/10 06:05:26;;;;;;;9.48;3.22;;;;;;;31.30;21.07;100598.22;5098203;28;20080;-62
2022/06/10 06:07:54;;;;;;;6.68;2.58;;;;;;;31.20;21.15;100588.63;5092164;28;20035;-60
2022/06/10 06:10:26;;;;;;;4.47;1.83;;;;;;;31.25;20.91;100598.66;5087339;28;20044;-61
2022/06/10 06:12:53;;;;;;;4.38;1.70;;;;;;;31.25;21.03;100601.47;5090673;28;20047;-61
2022/06/10 06:15:20;;;;;;;14.10;1.90;;;;;;;31.25;21.08;100591.03;5094571;28;20039;-60
2022/06/10 06:17:52;;;;;;;3.70;1.70;;;;;;;31.19;21.05;100605.88;5073338;28;20409;-61
2022/06/10 06:20:21;;;;;;;7.78;1.70;;;;;;;31.17;21.24;100599.84;5094322;28;20034;-61
2022/06/10 06:22:48;;;;;;;14.40;2.10;;;;;;;30.96;21.97;100607.16;5095228;28;20050;-61
2022/06/10 06:25:17;;;;;;;12.27;1.65;;;;;;;30.95;21.81;100608.38;5094271;28;20034;-61
2022/06/10 06:27:45;;;;;;;8.05;1.48;;;;;;;31.17;21.79;100611.09;5092569;28;20103;-61
2022/06/10 06:30:38;;;;;;;6.95;1.40;;;;;;;31.64;21.21;100615.28;5093146;28;20402;-62
2022/06/10 06:33:08;;;;;;;7.20;1.38;;;;;;;31.44;21.30;100605.78;5090146;28;20048;-61
2022/06/10 06:35:36;;;;;;;5.75;1.25;;;;;;;31.37;21.53;100612.22;5092408;28;20021;-61
2022/06/10 06:38:05;;;;;;;7.35;1.00;;;;;;;31.11;21.87;100624.75;5093582;28;20021;-60
2022/06/10 06:40:32;;;;;;;11.80;1.55;;;;;;;31.22;21.84;100619.09;5072862;28;20127;-61
2022/06/10 06:42:59;;;;;;;4.82;1.30;;;;;;;31.41;22.01;100629.03;5097680;28;20024;-61
2022/06/10 06:45:26;;;;;;;5.97;1.40;;;;;;;31.40;22.26;100633.06;5093427;28;20062;-61
2022/06/10 06:47:53;;;;;;;5.07;1.15;;;;;;;31.37;22.60;100626.25;5093040;28;20066;-62
2022/06/10 06:50:24;;;;;;;6.47;1.50;;;;;;;31.01;22.71;100625.56;5094467;28;20032;-62
2022/06/10 06:52:51;;;;;;;3.47;1.02;;;;;;;31.19;22.44;100619.91;5095562;28;20131;-60
2022/06/10 06:55:18;;;;;;;11.80;1.48;;;;;;;31.04;22.78;100624.75;5096574;28;20026;-61
2022/06/10 06:57:45;;;;;;;8.63;1.60;;;;;;;30.93;23.00;100624.81;5089487;28;20024;-61
2022/06/10 07:00:15;;;;;;;11.02;2.45;;;;;;;30.89;22.94;100632.44;5090530;28;20012;-60
2022/06/10 07:02:42;;;;;;;7.32;2.20;;;;;;;30.85;23.20;100633.66;5098993;28;20518;-61
2022/06/10 07:05:10;;;;;;;6.65;2.50;;;;;;;30.38;23.93;100632.91;5069339;28;20546;-61
2022/06/10 07:07:37;;;;;;;9.13;2.35;;;;;;;30.10;24.43;100628.09;5089043;28;20039;-60
2022/06/10 07:10:04;;;;;;;9.23;2.70;;;;;;;29.92;24.94;100632.88;5092647;28;20043;-63
2022/06/10 07:12:31;;;;;;;11.82;2.70;;;;;;;29.77;25.49;100630.03;5107095;28;20035;-62
2022/06/10 07:14:58;;;;;;;8.57;2.83;;;;;;;29.72;25.25;100630.44;5101331;28;20107;-63
2022/06/10 07:17:25;;;;;;;9.52;2.83;;;;;;;29.90;25.22;100635.28;5092136;28;20385;-63
2022/06/10 07:19:54;;;;;;;9.68;2.95;;;;;;;29.68;25.35;100628.84;5102206;28;20024;-62
2022/06/10 07:22:21;;;;;;;11.65;3.20;;;;;;;29.42;25.90;100639.13;5093551;28;20036;-62
2022/06/10 07:24:47;;;;;;;7.95;2.80;;;;;;;29.39;26.34;100628.72;5095190;28;20046;-63
2022/06/10 07:27:14;;;;;;;9.63;2.80;;;;;;;29.34;26.85;100631.91;5092920;28;20032;-62
2022/06/10 07:29:41;;;;;;;11.50;2.50;;;;;;;29.26;27.11;100623.88;5097674;28;20031;-62
2022/06/10 07:32:08;;;;;;;10.05;2.45;;;;;;;29.27;27.36;100625.50;5094500;28;20105;-62
2022/06/10 07:34:34;;;;;;;12.00;2.55;;;;;;;29.29;26.96;100639.91;5096774;28;20020;-63
2022/06/10 07:37:01;;;;;;;11.80;2.58;;;;;;;29.18;27.54;100623.06;5096213;28;20020;-63
2022/06/10 07:39:28;;;;;;;10.70;2.00;;;;;;;29.11;27.22;100629.44;5097935;28;20020;-62
2022/06/10 07:42:00;;;;;;;11.80;2.40;;;;;;;29.08;27.62;100615.41;5096124;28;20470;-62
2022/06/10 07:44:33;;;;;;;18.77;2.00;;;;;;;29.06;27.66;100618.59;5072487;28;20062;-62
2022/06/10 07:47:01;;;;;;;7.78;1.83;;;;;;;29.02;28.04;100611.41;5076417;28;20068;-62
2022/06/10 07:49:28;;;;;;;14.20;2.00;;;;;;;29.07;28.15;100619.41;5096698;28;20020;-62
2022/06/10 07:51:56;;;;;;;19.05;2.38;;;;;;;28.98;28.69;100614.19;5109983;28;20063;-62
2022/06/10 07:54:23;;;;;;;10.63;1.75;;;;;;;28.91;28.86;100618.94;5109801;28;20045;-62
2022/06/10 07:56:51;;;;;;;7.85;1.73;;;;;;;28.94;28.71;100618.16;5109516;28;20118;-62
2022/06/10 07:59:18;;;;;;;10.80;1.88;;;;;;;28.90;29.32;100618.13;5107361;28;20024;-62
2022/06/10 08:01:45;;;;;;;8.05;1.65;;;;;;;28.86;29.45;100618.09;5109928;28;20024;-63
2022/06/10 08:04:12;;;;;;;12.48;2.03;;;;;;;28.78;29.53;100612.84;5107575;28;20024;-63
2022/06/10 08:06:42;;;;;;;9.95;2.20;;;;;;;28.74;30.30;100614.84;5095685;28;20498;-61
2022/06/10 08:09:10;;;;;;;12.50;2.30;;;;;;;28.64;30.58;100621.94;5099002;28;20116;-62
2022/06/10 08:11:37;;;;;;;10.48;3.40;;;;;;;28.63;30.72;100619.56;5081411;28;20040;-62
2022/06/10 08:14:05;;;;;;;18.38;3.60;;;;;;;28.64;30.39;100615.56;5093468;28;20102;-62
2022/06/10 08:16:34;;;;;;;13.57;3.80;;;;;;;28.64;30.64;100615.56;5095048;28;20028;-62
2022/06/10 08:19:00;;;;;;;25.30;4.90;;;;;;;28.55;31.62;100618.72;5095453;28;20024;-62
2022/06/10 08:24:12;;;;;;;16.17;5.63;;;;;;;28.59;32.07;100613.94;5109545;28;20076;-62
2022/06/10 08:31:31;;;;;;;18.52;5.10;;;;;;;28.56;35.82;100628.72;5098605;27;20913;-61
2022/06/10 08:33:58;;;;;;;15.68;4.15;;;;;;;28.49;36.21;100632.25;5093117;28;20103;-61
2022/06/10 08:36:25;;;;;;;12.85;3.67;;;;;;;28.32;37.92;100640.50;5100464;28;20482;-63
2022/06/10 08:38:52;;;;;;;15.23;3.55;;;;;;;28.45;38.70;100637.00;5106885;28;20490;-63
2022/06/10 08:41:26;;;;;;;19.33;3.95;;;;;;;28.19;40.36;100639.97;5099172;28;20111;-61
2022/06/10 08:44:08;;;;;;;21.00;3.90;;;;;;;28.16;41.08;100640.72;5109965;28;20047;-62
2022/06/10 08:46:50;;;;;;;13.68;3.15;;;;;;;28.06;42.89;100644.25;5109981;28;20034;-61
2022/06/10 08:49:45;;;;;;;15.30;2.95;;;;;;;27.94;43.48;100642.53;5102300;28;20389;-62
2022/06/10 08:52:44;;;;;;;15.25;3.33;;;;;;;27.87;44.18;100640.50;5098199;28;20039;-61
2022/06/10 08:55:13;;;;;;;14.10;3.17;;;;;;;27.75;45.48;100643.53;5106618;28;20508;-62
2022/06/10 08:57:44;;;;;;;12.23;3.97;;;;;;;27.69;45.33;100643.09;5097146;28;20088;-61
2022/06/10 09:00:38;;;;;;;11.02;4.80;;;;;;;27.65;45.81;100644.25;5098324;28;20028;-61
2022/06/10 09:03:29;;;;;;;15.27;4.20;;;;;;;27.56;45.99;100629.75;5106295;28;20048;-61
2022/06/10 09:06:02;;;;;;;10.43;4.32;;;;;;;27.49;46.24;100632.47;5098862;28;20036;-62
2022/06/10 09:08:39;;;;;;;11.50;3.80;;;;;;;27.38;45.99;100627.56;5110100;28;20107;-62
2022/06/10 09:11:27;;;;;;;9.98;3.70;;;;;;;27.30;45.35;100628.69;5107114;28;20489;-61
2022/06/10 09:14:13;;;;;;;7.88;3.65;;;;;;;27.25;46.53;100631.78;5099003;28;20036;-62
2022/06/10 09:17:00;;;;;;;14.00;4.22;;;;;;;27.13;47.57;100632.06;5094189;28;20032;-61
2022/06/10 09:19:36;;;;;;;17.30;4.28;;;;;;;27.03;48.04;100629.91;5101516;28;20031;-62
2022/06/10 09:22:21;;;;;;;13.77;4.15;;;;;;;26.97;48.57;100628.63;5098819;28;20048;-61
2022/06/10 09:25:08;;;;;;;11.75;3.55;;;;;;;26.85;48.55;100640.00;5105466;28;20036;-62
2022/06/10 09:27:44;;;;;;;11.95;3.55;;;;;;;26.79;49.86;100637.53;5094588;28;20039;-61
2022/06/10 09:30:15;;;;;;;11.10;3.67;;;;;;;26.73;50.06;100633.47;5109069;28;20058;-63
2022/06/10 09:33:03;;;;;;;12.30;3.22;;;;;;;26.73;49.96;100639.03;5108518;28;20074;-63
2022/06/10 09:35:51;;;;;;;14.77;3.50;;;;;;;26.72;50.09;100644.97;5094934;28;20496;-62
2022/06/10 09:38:36;;;;;;;11.90;3.55;;;;;;;26.70;47.43;100644.56;5101850;28;20036;-63
2022/06/10 09:41:11;;;;;;;13.43;3.35;;;;;;;26.74;49.42;100646.22;5104063;28;20036;-63
2022/06/10 09:44:01;;;;;;;19.50;3.60;;;;;;;26.75;49.26;100653.44;5082417;28;20028;-63
2022/06/10 09:47:00;;;;;;;15.85;3.47;;;;;;;26.71;49.99;100651.75;5081611;28;20567;-63
2022/06/10 09:49:45;;;;;;;12.98;3.90;;;;;;;26.75;49.97;100652.59;5077746;28;20044;-62
2022/06/10 09:52:40;;;;;;;13.02;3.90;;;;;;;26.75;50.22;100642.28;5083618;28;20043;-62
2022/06/10 09:55:35;;;;;;;17.50;3.90;;;;;;;26.73;50.56;100644.59;5091864;28;20047;-62
2022/06/10 09:58:30;;;;;;;11.73;3.90;;;;;;;26.72;50.26;100654.16;5085462;28;20028;-62
2022/06/10 10:01:14;;;;;;;15.80;4.13;;;;;;;26.70;50.06;100650.94;5078753;28;20375;-62
2022/06/10 10:03:51;;;;;;;15.45;4.05;;;;;;;26.72;49.42;100647.78;5087827;28;20044;-62
2022/06/10 10:06:29;;;;;;;9.80;3.05;;;;;;;26.74;50.30;100654.56;5087284;28;20509;-62
2022/06/10 10:09:11;;;;;;;10.25;3.20;;;;;;;26.72;51.69;100659.72;5095056;28;20047;-62
2022/06/10 10:11:50;;;;;;;8.57;3.03;;;;;;;26.68;51.77;100664.44;5087823;28;20041;-61
2022/06/10 10:14:49;;;;;;;9.50;2.72;;;;;;;26.64;53.31;100666.41;5079061;28;20089;-62
2022/06/10 10:17:41;;;;;;;10.13;2.67;;;;;;;26.57;53.44;100660.72;5078767;28;20035;-62
2022/06/10 10:20:20;;;;;;;9.27;3.22;;;;;;;26.54;53.89;100660.63;5083332;28;20036;-61
2022/06/10 10:22:55;;;;;;;12.20;3.45;;;;;;;26.53;54.35;100665.41;5091606;28;20032;-61
2022/06/10 10:25:25;;;;;;;13.90;4.03;;;;;;;26.45;54.96;100661.72;5079458;28;20067;-61
2022/06/10 10:27:54;;;;;;;11.85;3.70;;;;;;;26.47;54.57;100661.34;5094853;28;20485;-61
2022/06/10 10:30:49;;;;;;;10.02;4.05;;;;;;;26.47;54.18;100664.13;5083387;28;20044;-61
2022/06/10 10:33:16;;;;;;;17.05;4.85;;;;;;;26.55;53.24;100671.41;5087048;28;20028;-62
2022/06/10 10:35:50;;;;;;;11.13;3.85;;;;;;;26.46;53.67;100670.88;5094686;28;20036;-62
2022/06/10 10:38:39;;;;;;;13.67;4.73;;;;;;;26.44;56.05;100681.59;5086595;28;20034;-62
2022/06/10 10:41:17;;;;;;;16.67;5.30;;;;;;;26.33;56.69;100688.94;5091909;28;20164;-62
2022/06/10 10:43:48;;;;;;;18.52;5.85;;;;;;;26.31;56.96;100688.50;5082262;28;20039;-62
2022/06/10 10:46:29;;;;;;;20.95;5.82;;;;;;;26.28;57.44;100689.25;5081780;28;20028;-62
2022/06/10 10:48:57;;;;;;;21.40;5.82;;;;;;;26.20;57.82;100700.25;5090931;28;20036;-61
2022/06/10 10:51:36;;;;;;;31.70;6.50;;;;;;;26.20;59.03;100693.88;5079018;28;20035;-61
2022/06/10 10:54:24;;;;;;;21.95;5.43;;;;;;;26.23;59.24;100697.94;5093283;28;20173;-61
2022/06/10 10:56:52;;;;;;;26.35;5.85;;;;;;;26.29;60.84;100690.88;5077191;28;20164;-61
2022/06/10 10:59:37;;;;;;;14.23;4.75;;;;;;;26.18;60.86;100693.47;5094102;28;20390;-61
2022/06/10 11:02:23;;;;;;;;;;;;;;;26.23;61.08;100698.75;5083966;28;20036;-61
2022/06/10 11:04:50;;;;;;;15.45;7.03;;;;;;;26.15;60.68;100697.78;5090661;28;19969;-62
2022/06/10 11:07:20;;;;;;;28.80;19.75;;;;;;;26.12;61.06;100703.31;5085608;28;20020;-62
2022/06/10 11:09:52;;;;;;;29.17;15.20;;;;;;;26.08;62.21;100708.81;5093975;28;20482;-61
2022/06/10 11:12:27;;;;;;;20.65;9.77;;;;;;;26.03;62.33;100700.78;5081030;28;20040;-62
2022/06/10 11:15:15;;;;;;;21.98;7.78;;;;;;;26.01;62.97;100713.44;5090468;28;20032;-61
2022/06/10 11:17:44;;;;;;;17.63;5.43;;;;;;;25.94;63.27;100714.13;5081431;28;20367;-61
2022/06/10 11:20:14;;;;;;;13.52;5.50;;;;;;;25.95;62.91;100710.16;5092166;28;20070;-61
2022/06/10 11:22:44;;;;;;;17.58;5.60;;;;;;;25.95;63.69;100714.94;5077907;28;20445;-61
2022/06/10 11:25:19;;;;;;;15.30;5.90;;;;;;;26.00;63.95;100726.56;5090299;28;20035;-61
2022/06/10 11:27:49;;;;;;;18.30;6.63;;;;;;;26.02;63.66;100726.19;5081532;28;20043;-62
2022/06/10 11:30:16;;;;;;;23.30;6.78;;;;;;;25.99;63.38;100719.38;5080752;28;20090;-62
2022/06/10 11:32:48;;;;;;;36.15;6.57;;;;;;;25.93;63.17;100720.06;5089603;28;20501;-61
2022/06/10 11:35:56;;;;;;;21.42;6.10;;;;;;;25.89;62.69;100723.59;5077125;28;20028;-61
2022/06/10 11:38:28;;;;;;;16.88;6.38;;;;;;;25.93;64.42;100720.88;5086799;28;20032;-61
2022/06/10 11:41:13;;;;;;;13.02;6.43;;;;;;;26.02;64.83;100718.63;5092389;28;20097;-61
2022/06/10 11:43:47;;;;;;;14.00;5.70;;;;;;;26.02;65.36;100729.78;5080517;28;20027;-61
2022/06/10 11:46:30;;;;;;;15.27;6.13;;;;;;;26.10;65.46;100733.53;5079850;28;20502;-61
2022/06/10 11:49:22;;;;;;;20.40;5.50;;;;;;;26.02;65.45;100743.69;5090671;28;20036;-60
2022/06/10 11:52:16;;;;;;;16.77;5.40;;;;;;;25.95;66.19;100749.16;5083325;28;20541;-61
2022/06/10 11:55:10;;;;;;;22.13;5.88;;;;;;;25.98;66.33;100753.16;5087722;28;20379;-61
2022/06/10 12:00:48;;;;;;;18.05;5.30;;;;;;;25.88;67.35;100746.22;5093292;28;20115;-62
2022/06/10 12:03:23;;;;;;;11.45;4.47;;;;;;;25.83;67.70;100755.66;5074777;28;20065;-61
2022/06/10 12:06:00;;;;;;;13.38;4.57;;;;;;;25.76;67.31;100755.53;5090790;28;20028;-60